UAL2528 KPWM-KEWR
Flight info
| Callsign | UAL2528 |
|---|---|
| Flight time | N/A |
| Altitude | 32000 |
| Route | HSKEL3 HANAA FLOSI4 |
| Aircraft | A21N/M-SDE2E3FGHIJ1RWXY/LB1 |
Departure
| Time | 2026-05-07 13:37 |
|---|---|
| Airport | Portland International Jetport (KPWM) |
Arrival
| Time | N/A |
|---|---|
| Airport | Newark Liberty International Airport (KEWR) |
| Time | Latitude | Longitude | Altitude | Speed | Heading |
|---|---|---|---|---|---|
| 2026-05-07 13:13 | 43.64657 | -70.30894 | 69 ft | 0 kts | 353° |
| 2026-05-07 13:29 | 43.64656 | -70.30894 | 71 ft | 1 kts | 353° |
| 2026-05-07 13:29 | 43.64638 | -70.30890 | 64 ft | 3 kts | 353° |
| 2026-05-07 13:29 | 43.64620 | -70.30887 | 68 ft | 3 kts | 354° |
| 2026-05-07 13:30 | 43.64601 | -70.30888 | 62 ft | 3 kts | 23° |
| 2026-05-07 13:30 | 43.64588 | -70.30902 | 69 ft | 3 kts | 67° |
| 2026-05-07 13:30 | 43.64584 | -70.30928 | 61 ft | 3 kts | 91° |
| 2026-05-07 13:30 | 43.64585 | -70.30943 | 68 ft | 0 kts | 95° |
| 2026-05-07 13:32 | 43.64585 | -70.30942 | 69 ft | 1 kts | 95° |
| 2026-05-07 13:32 | 43.64583 | -70.30915 | 61 ft | 4 kts | 95° |
| 2026-05-07 13:33 | 43.64580 | -70.30870 | 68 ft | 5 kts | 95° |
| 2026-05-07 13:33 | 43.64577 | -70.30816 | 65 ft | 7 kts | 95° |
| 2026-05-07 13:33 | 43.64573 | -70.30747 | 66 ft | 8 kts | 95° |
| 2026-05-07 13:33 | 43.64566 | -70.30665 | 70 ft | 9 kts | 96° |
| 2026-05-07 13:34 | 43.64559 | -70.30573 | 63 ft | 10 kts | 96° |
| 2026-05-07 13:34 | 43.64568 | -70.30365 | 63 ft | 12 kts | 73° |
| 2026-05-07 13:34 | 43.64587 | -70.30247 | 57 ft | 13 kts | 94° |
| 2026-05-07 13:35 | 43.64578 | -70.30117 | 58 ft | 14 kts | 93° |
| 2026-05-07 13:35 | 43.64573 | -70.29992 | 58 ft | 7 kts | 93° |
| 2026-05-07 13:35 | 43.64550 | -70.29929 | 52 ft | 9 kts | 148° |
| 2026-05-07 13:35 | 43.64488 | -70.29912 | 56 ft | 10 kts | 179° |
| 2026-05-07 13:36 | 43.64434 | -70.29911 | 56 ft | 5 kts | 179° |
| 2026-05-07 13:36 | 43.64410 | -70.29946 | 57 ft | 6 kts | 256° |
| 2026-05-07 13:36 | 43.64412 | -70.30025 | 62 ft | 18 kts | 274° |
| 2026-05-07 13:36 | 43.64449 | -70.30587 | 69 ft | 99 kts | 275° |
| 2026-05-07 13:37 | 43.64539 | -70.31891 | 207 ft | 159 kts | 276° |
| 2026-05-07 13:37 | 43.64638 | -70.33348 | 1416 ft | 150 kts | 276° |
| 2026-05-07 13:37 | 43.64720 | -70.34875 | 1875 ft | 171 kts | 275° |
| 2026-05-07 13:37 | 43.64829 | -70.36639 | 2189 ft | 198 kts | 276° |
| 2026-05-07 13:38 | 43.64960 | -70.38665 | 2612 ft | 229 kts | 276° |
| 2026-05-07 13:38 | 43.65113 | -70.40978 | 2958 ft | 252 kts | 275° |
| 2026-05-07 13:38 | 43.65272 | -70.43424 | 3733 ft | 257 kts | 275° |
| 2026-05-07 13:38 | 43.65437 | -70.45889 | 4637 ft | 258 kts | 277° |
| 2026-05-07 13:39 | 43.65813 | -70.48316 | 5485 ft | 259 kts | 284° |
| 2026-05-07 13:39 | 43.66304 | -70.50717 | 6368 ft | 260 kts | 285° |
| 2026-05-07 13:39 | 43.66798 | -70.53120 | 7239 ft | 259 kts | 283° |
| 2026-05-07 13:39 | 43.67285 | -70.55514 | 8137 ft | 258 kts | 282° |
| 2026-05-07 13:40 | 43.67765 | -70.57895 | 8983 ft | 257 kts | 281° |
| 2026-05-07 13:40 | 43.68239 | -70.60276 | 9808 ft | 257 kts | 280° |
| 2026-05-07 13:40 | 43.68720 | -70.62681 | 10367 ft | 266 kts | 280° |
| 2026-05-07 13:40 | 43.69224 | -70.65234 | 10617 ft | 285 kts | 280° |
| 2026-05-07 13:41 | 43.69766 | -70.67959 | 10844 ft | 303 kts | 280° |
| 2026-05-07 13:41 | 43.70342 | -70.70857 | 11052 ft | 321 kts | 280° |
| 2026-05-07 13:41 | 43.70946 | -70.73908 | 11262 ft | 338 kts | 280° |
| 2026-05-07 13:41 | 43.71551 | -70.77124 | 11467 ft | 352 kts | 277° |
| 2026-05-07 13:42 | 43.71778 | -70.80490 | 11848 ft | 353 kts | 265° |
| 2026-05-07 13:42 | 43.71387 | -70.83825 | 12345 ft | 352 kts | 252° |
| 2026-05-07 13:42 | 43.70532 | -70.87000 | 12910 ft | 353 kts | 248° |
| 2026-05-07 13:42 | 43.69616 | -70.90105 | 13527 ft | 354 kts | 247° |
| 2026-05-07 13:43 | 43.68691 | -70.93257 | 14057 ft | 354 kts | 248° |
| 2026-05-07 13:43 | 43.67771 | -70.96419 | 14559 ft | 356 kts | 247° |
| 2026-05-07 13:43 | 43.66847 | -70.99605 | 15151 ft | 358 kts | 247° |
| 2026-05-07 13:43 | 43.65908 | -71.02852 | 15758 ft | 360 kts | 247° |
| 2026-05-07 13:44 | 43.65091 | -71.06089 | 16316 ft | 363 kts | 252° |
| 2026-05-07 13:44 | 43.64465 | -71.09477 | 16844 ft | 366 kts | 254° |
| 2026-05-07 13:44 | 43.63868 | -71.12900 | 17364 ft | 368 kts | 254° |
| 2026-05-07 13:44 | 43.63261 | -71.16345 | 17907 ft | 370 kts | 253° |
| 2026-05-07 13:45 | 43.62642 | -71.19812 | 18348 ft | 373 kts | 253° |
| 2026-05-07 13:45 | 43.62018 | -71.23263 | 18747 ft | 362 kts | 253° |
| 2026-05-07 13:45 | 43.61430 | -71.26549 | 17811 ft | 350 kts | 253° |
| 2026-05-07 13:45 | 43.60828 | -71.29892 | 15394 ft | 369 kts | 254° |
| 2026-05-07 13:46 | 43.60170 | -71.33427 | 14264 ft | 376 kts | 252° |
| 2026-05-07 13:46 | 43.59202 | -71.36683 | 13790 ft | 360 kts | 239° |
| 2026-05-07 13:46 | 43.57589 | -71.39195 | 13026 ft | 346 kts | 225° |
| 2026-05-07 13:46 | 43.55727 | -71.41314 | 11448 ft | 349 kts | 221° |
| 2026-05-07 13:47 | 43.53688 | -71.43421 | 9367 ft | 383 kts | 218° |
| 2026-05-07 13:47 | 43.51554 | -71.45511 | 8803 ft | 369 kts | 218° |
| 2026-05-07 13:47 | 43.49534 | -71.47499 | 8265 ft | 349 kts | 219° |
| 2026-05-07 13:47 | 43.47614 | -71.49458 | 7253 ft | 339 kts | 223° |
| 2026-05-07 13:48 | 43.46012 | -71.51909 | 5506 ft | 352 kts | 238° |
| 2026-05-07 13:48 | 43.44985 | -71.55010 | 4073 ft | 361 kts | 256° |
| 2026-05-07 13:48 | 43.44200 | -71.58124 | 4207 ft | 320 kts | 243° |
| 2026-05-07 13:48 | 43.42932 | -71.60338 | 4600 ft | 281 kts | 223° |
| 2026-05-07 13:49 | 43.41203 | -71.61450 | 3893 ft | 284 kts | 189° |
| 2026-05-07 13:49 | 43.39201 | -71.61257 | 3115 ft | 287 kts | 172° |
| 2026-05-07 13:49 | 43.37301 | -71.60501 | 2433 ft | 288 kts | 162° |
| 2026-05-07 13:49 | 43.35482 | -71.59561 | 2348 ft | 273 kts | 162° |
| 2026-05-07 13:50 | 43.33740 | -71.58665 | 2197 ft | 260 kts | 164° |
| 2026-05-07 13:50 | 43.32101 | -71.57879 | 2333 ft | 242 kts | 162° |
| 2026-05-07 13:50 | 43.30528 | -71.56953 | 2441 ft | 248 kts | 156° |
| 2026-05-07 13:50 | 43.29011 | -71.55767 | 2509 ft | 251 kts | 149° |
| 2026-05-07 13:51 | 43.27500 | -71.54569 | 2282 ft | 251 kts | 161° |
| 2026-05-07 13:51 | 43.25861 | -71.53837 | 1761 ft | 245 kts | 167° |
| 2026-05-07 13:51 | 43.24275 | -71.52979 | 1210 ft | 244 kts | 156° |
| 2026-05-07 13:51 | 43.22761 | -71.51988 | 783 ft | 239 kts | 155° |
| 2026-05-07 13:52 | 43.21235 | -71.51032 | 534 ft | 242 kts | 157° |
| 2026-05-07 13:52 | 43.19826 | -71.50141 | 352 ft | 164 kts | 154° |
| 2026-05-07 13:52 | 43.19348 | -71.49836 | 348 ft | 0 kts | 155° |
| 2026-05-07 13:52 | 43.19347 | -71.49835 | 344 ft | 0 kts | 155° |
| 2026-05-07 13:55 | 43.19342 | -71.49835 | 353 ft | 0 kts | 179° |
| 2026-05-07 13:56 | 43.19339 | -71.49815 | 344 ft | 2 kts | 50° |
| 2026-05-07 13:56 | 43.19353 | -71.49824 | 354 ft | 3 kts | 311° |